createdAt,value
2022-08-19T00:00:26.106Z,98908.53
2022-08-19T00:01:30.775Z,98898.84
2022-08-19T00:02:33.077Z,98895.19
2022-08-19T00:03:35.679Z,98907.25
2022-08-19T00:04:38.604Z,98906.84
2022-08-19T00:05:42.762Z,98907.38
2022-08-19T00:06:47.546Z,98904.84
2022-08-19T00:07:50.700Z,98904.44
2022-08-19T00:08:53.031Z,98904.84
2022-08-19T00:09:55.400Z,98910.03
2022-08-19T00:10:59.794Z,98913.81
2022-08-19T00:12:02.454Z,98911.41
2022-08-19T00:13:05.154Z,98908.50
2022-08-19T00:14:10.666Z,98920.28
2022-08-19T00:15:17.584Z,98919.44
2022-08-19T00:16:26.151Z,98921.97
2022-08-19T00:17:29.116Z,98923.22
2022-08-19T00:18:32.173Z,98932.09
2022-08-19T00:19:35.147Z,98926.59
2022-08-19T00:20:41.020Z,98928.00
2022-08-19T00:21:44.235Z,98928.56
2022-08-19T00:22:47.173Z,98931.94
2022-08-19T00:23:49.754Z,98926.88
2022-08-19T00:24:52.066Z,98922.94
2022-08-19T00:25:54.397Z,98919.22
2022-08-19T00:26:57.845Z,98928.81
2022-08-19T00:28:21.571Z,98922.38
2022-08-19T00:29:25.622Z,98925.94
2022-08-19T00:30:31.212Z,98921.19
2022-08-19T00:31:33.690Z,98922.50
2022-08-19T00:32:36.151Z,98929.81
2022-08-19T00:33:38.990Z,98932.56
2022-08-19T00:34:41.411Z,98929.03
2022-08-19T00:35:43.740Z,98925.09
2022-08-19T00:36:46.440Z,98932.09
2022-08-19T00:37:49.711Z,98931.97
2022-08-19T00:38:52.649Z,98940.69
2022-08-19T00:39:56.598Z,98935.19
2022-08-19T00:40:59.703Z,98923.22
2022-08-19T00:42:02.013Z,98925.22
2022-08-19T00:43:10.376Z,98926.72
2022-08-19T00:44:22.705Z,98923.63
2022-08-19T00:45:32.643Z,98919.44
2022-08-19T00:46:41.176Z,98921.25
2022-08-19T00:47:44.215Z,98919.56
2022-08-19T00:48:46.578Z,98918.03
2022-08-19T00:49:52.898Z,98906.53
2022-08-19T00:50:56.480Z,98903.63
2022-08-19T00:52:05.330Z,98885.22
2022-08-19T00:53:07.806Z,98885.94
2022-08-19T00:54:10.662Z,98884.66
2022-08-19T00:55:21.499Z,98885.28
2022-08-19T00:56:24.528Z,98891.19
2022-08-19T00:57:39.657Z,98881.16
2022-08-19T00:58:42.174Z,98885.22
2022-08-19T01:00:00.752Z,98890.50
2022-08-19T01:01:06.037Z,98881.22
2022-08-19T01:02:08.868Z,98902.84
2022-08-19T01:03:14.827Z,98890.78
2022-08-19T01:04:17.201Z,98893.31
2022-08-19T01:05:24.051Z,98902.81
2022-08-19T01:06:28.412Z,98904.09
2022-08-19T01:07:35.906Z,98892.78
2022-08-19T01:08:40.804Z,98893.63
2022-08-19T01:09:43.338Z,98897.03
2022-08-19T01:10:53.089Z,98893.78
2022-08-19T01:11:57.001Z,98907.53
2022-08-19T01:13:01.712Z,98913.84
2022-08-19T01:14:05.273Z,98922.28
2022-08-19T01:15:10.594Z,98915.97
2022-08-19T01:16:13.588Z,98924.22
2022-08-19T01:17:16.989Z,98927.84
2022-08-19T01:18:21.544Z,98923.41
2022-08-19T01:19:43.700Z,98911.63
2022-08-19T01:20:47.679Z,98908.53
2022-08-19T01:22:01.488Z,98914.03
2022-08-19T01:23:16.946Z,98911.06
2022-08-19T01:24:19.300Z,98902.06
2022-08-19T01:25:29.732Z,98903.19
2022-08-19T01:26:35.835Z,98907.28
2022-08-19T01:27:44.200Z,98902.94
2022-08-19T01:28:50.604Z,98909.63
2022-08-19T01:29:54.653Z,98910.88
2022-08-19T01:30:58.118Z,98911.28
2022-08-19T01:32:02.221Z,98911.00
2022-08-19T01:33:06.837Z,98917.09
2022-08-19T01:34:09.149Z,98912.06
2022-08-19T01:35:14.236Z,98911.63
2022-08-19T01:36:42.912Z,98911.28
2022-08-19T01:37:48.967Z,98909.56
2022-08-19T01:38:51.460Z,98919.97
2022-08-19T01:39:54.366Z,98913.34
2022-08-19T01:40:56.667Z,98903.81
2022-08-19T01:41:58.960Z,98907.38
2022-08-19T01:43:03.910Z,98913.94
2022-08-19T01:44:17.395Z,98902.84
2022-08-19T01:45:23.559Z,98901.47
2022-08-19T01:46:25.922Z,98902.84
2022-08-19T01:47:28.653Z,98899.19
2022-08-19T01:48:40.135Z,98898.22
2022-08-19T01:49:42.657Z,98886.81
2022-08-19T01:50:45.173Z,98887.09
2022-08-19T01:51:48.634Z,98889.47
2022-08-19T01:53:06.272Z,98898.47
2022-08-19T01:54:13.222Z,98895.81
2022-08-19T01:55:19.726Z,98903.44
2022-08-19T01:56:23.074Z,98903.03
2022-08-19T01:57:25.657Z,98914.50
2022-08-19T01:58:36.911Z,98923.91
2022-08-19T01:59:42.097Z,98921.75
2022-08-19T02:00:44.769Z,98916.16
2022-08-19T02:01:47.303Z,98916.16
2022-08-19T02:02:50.042Z,98921.38
2022-08-19T02:03:54.376Z,98921.22
2022-08-19T02:04:59.547Z,98911.00
2022-08-19T02:06:06.375Z,98908.44
2022-08-19T02:07:09.120Z,98906.47
2022-08-19T02:08:12.410Z,98900.56
2022-08-19T02:09:15.384Z,98906.63
2022-08-19T02:10:21.927Z,98909.22
2022-08-19T02:11:32.588Z,98908.25
2022-08-19T02:12:35.176Z,98905.75
2022-08-19T02:13:39.913Z,98920.88
2022-08-19T02:14:42.272Z,98909.09
2022-08-19T02:15:44.885Z,98919.75
2022-08-19T02:16:47.290Z,98912.72
2022-08-19T02:17:49.754Z,98926.94
2022-08-19T02:18:52.129Z,98920.09
2022-08-19T02:19:54.407Z,98934.47
2022-08-19T02:20:56.693Z,98927.84
2022-08-19T02:21:59.926Z,98933.91
2022-08-19T02:23:02.312Z,98919.97
2022-08-19T02:24:05.152Z,98918.75
2022-08-19T02:25:07.909Z,98927.88
2022-08-19T02:26:10.732Z,98925.53
2022-08-19T02:27:13.050Z,98922.47
2022-08-19T02:28:18.709Z,98921.75
2022-08-19T02:29:21.631Z,98919.63
2022-08-19T02:30:25.537Z,98925.13
2022-08-19T02:31:29.028Z,98919.19
2022-08-19T02:32:31.700Z,98926.22
2022-08-19T02:33:33.999Z,98925.13
2022-08-19T02:34:36.363Z,98924.44
2022-08-19T02:35:42.982Z,98925.13
2022-08-19T02:36:45.466Z,98922.78
2022-08-19T02:38:12.829Z,98927.47
2022-08-19T02:39:15.224Z,98918.88
2022-08-19T02:40:18.786Z,98922.97
2022-08-19T02:41:27.112Z,98921.59
2022-08-19T02:42:29.599Z,98909.63
2022-08-19T02:43:36.792Z,98901.06
2022-08-19T02:44:39.746Z,98904.06
2022-08-19T02:45:42.161Z,98914.06
2022-08-19T02:46:47.103Z,98918.94
2022-08-19T02:47:49.409Z,98904.44
2022-08-19T02:48:53.826Z,98907.50
2022-08-19T02:49:56.113Z,98905.28
2022-08-19T02:50:58.368Z,98903.06
2022-08-19T02:52:00.710Z,98906.78
2022-08-19T02:53:02.977Z,98905.09
2022-08-19T02:54:06.349Z,98901.94
2022-08-19T02:55:08.975Z,98898.16
2022-08-19T02:56:11.343Z,98887.44
2022-08-19T02:57:13.922Z,98894.22
2022-08-19T02:58:17.040Z,98891.25
2022-08-19T02:59:22.873Z,98899.25
2022-08-19T03:00:25.427Z,98892.47
2022-08-19T03:01:30.981Z,98902.06
2022-08-19T03:02:33.320Z,98899.91
2022-08-19T03:03:35.669Z,98904.44
2022-08-19T03:04:38.060Z,98904.91
2022-08-19T03:05:48.151Z,98900.16
2022-08-19T03:07:10.425Z,98904.78
2022-08-19T03:08:14.283Z,98899.09
2022-08-19T03:09:18.215Z,98902.00
2022-08-19T03:10:21.571Z,98907.31
2022-08-19T03:11:30.183Z,98908.28
2022-08-19T03:12:35.644Z,98906.59
2022-08-19T03:13:37.960Z,98910.31
2022-08-19T03:14:40.278Z,98903.25
2022-08-19T03:15:45.154Z,98908.03
2022-08-19T03:16:49.916Z,98913.41
2022-08-19T03:17:52.165Z,98919.72
2022-08-19T03:18:56.965Z,98924.06
2022-08-19T03:19:59.273Z,98915.44
2022-08-19T03:21:01.510Z,98912.09
2022-08-19T03:22:05.043Z,98922.25
2022-08-19T03:23:07.346Z,98919.47
2022-08-19T03:24:09.711Z,98913.53
2022-08-19T03:25:12.948Z,98925.97
2022-08-19T03:26:17.103Z,98923.63
2022-08-19T03:27:19.678Z,98921.81
2022-08-19T03:28:22.502Z,98910.19
2022-08-19T03:29:30.852Z,98912.66
2022-08-19T03:30:34.920Z,98924.28
2022-08-19T03:31:44.763Z,98919.53
2022-08-19T03:32:57.337Z,98918.88
2022-08-19T03:33:59.722Z,98921.91
2022-08-19T03:35:03.266Z,98922.16
2022-08-19T03:36:10.607Z,98917.25
2022-08-19T03:37:13.334Z,98927.06
2022-08-19T03:38:15.656Z,98920.03
2022-08-19T03:39:18.686Z,98916.91
2022-08-19T03:40:21.105Z,98927.13
2022-08-19T03:41:43.276Z,98917.91
2022-08-19T03:42:49.197Z,98922.03
2022-08-19T03:43:53.730Z,98919.38
2022-08-19T03:44:56.052Z,98913.81
2022-08-19T03:46:04.996Z,98908.22
2022-08-19T03:47:07.928Z,98917.38
2022-08-19T03:48:10.616Z,98909.25
2022-08-19T03:49:14.265Z,98920.75
2022-08-19T03:50:18.103Z,98919.53
2022-08-19T03:51:41.661Z,98920.50
2022-08-19T03:52:49.660Z,98921.34
2022-08-19T03:53:53.235Z,98921.22
2022-08-19T03:54:55.624Z,98923.75
2022-08-19T03:56:00.527Z,98926.97
2022-08-19T03:57:03.947Z,98915.94
2022-08-19T03:58:07.437Z,98915.25
2022-08-19T03:59:12.789Z,98918.22
2022-08-19T04:00:16.091Z,98918.50
2022-08-19T04:01:20.776Z,98906.03
2022-08-19T04:02:37.017Z,98915.81
2022-08-19T04:03:40.675Z,98917.25
2022-08-19T04:04:44.739Z,98919.97
2022-08-19T04:05:48.001Z,98917.19
2022-08-19T04:06:51.655Z,98922.31
2022-08-19T04:07:54.246Z,98917.25
2022-08-19T04:08:58.647Z,98926.41
2022-08-19T04:10:01.319Z,98922.75
2022-08-19T04:11:08.795Z,98927.78
2022-08-19T04:12:11.169Z,98935.50
2022-08-19T04:13:14.322Z,98930.44
2022-08-19T04:14:21.860Z,98940.50
2022-08-19T04:15:24.137Z,98944.16
2022-08-19T04:16:35.058Z,98941.81
2022-08-19T04:17:37.825Z,98944.59
2022-08-19T04:18:41.102Z,98947.03
2022-08-19T04:19:43.908Z,98951.50
2022-08-19T04:20:48.452Z,98938.88
2022-08-19T04:21:53.845Z,98943.25
2022-08-19T04:22:57.610Z,98949.28
2022-08-19T04:24:00.024Z,98950.31
2022-08-19T04:25:02.449Z,98944.06
2022-08-19T04:26:04.920Z,98948.78
2022-08-19T04:27:11.530Z,98940.56
2022-08-19T04:28:14.495Z,98941.53
2022-08-19T04:29:25.792Z,98939.44
2022-08-19T04:30:28.248Z,98938.47
2022-08-19T04:31:33.306Z,98932.06
2022-08-19T04:32:36.331Z,98940.88
2022-08-19T04:33:38.640Z,98930.03
2022-08-19T04:35:02.625Z,98939.97
2022-08-19T04:36:04.005Z,98942.34
2022-08-19T04:37:12.635Z,98946.31
2022-08-19T04:38:20.036Z,98949.56
2022-08-19T04:39:48.836Z,98950.66
2022-08-19T04:41:10.839Z,98951.47
2022-08-19T04:42:32.633Z,98941.28
2022-08-19T04:43:36.818Z,98945.56
2022-08-19T04:44:46.389Z,98961.91
2022-08-19T04:45:48.901Z,98952.56
2022-08-19T04:46:55.086Z,98951.09
2022-08-19T04:48:19.744Z,98947.19
2022-08-19T04:49:23.345Z,98952.66
2022-08-19T04:50:27.615Z,98943.94
2022-08-19T04:51:32.124Z,98954.13
2022-08-19T04:52:34.971Z,98944.53
2022-08-19T04:53:38.760Z,98940.25
2022-08-19T04:54:41.075Z,98944.81
2022-08-19T04:55:43.712Z,98945.38
2022-08-19T04:56:45.976Z,98942.16
2022-08-19T04:57:48.445Z,98952.28
2022-08-19T04:58:53.661Z,98944.91
2022-08-19T04:59:57.895Z,98952.75
2022-08-19T05:01:00.991Z,98949.72
2022-08-19T05:02:05.122Z,98955.38
2022-08-19T05:03:07.990Z,98954.34
2022-08-19T05:04:10.562Z,98955.28
2022-08-19T05:05:13.540Z,98954.03
2022-08-19T05:06:18.885Z,98949.94
2022-08-19T05:07:21.193Z,98945.25
2022-08-19T05:08:31.340Z,98938.94
2022-08-19T05:09:57.116Z,98944.63
2022-08-19T05:10:58.459Z,98938.75
2022-08-19T05:12:00.955Z,98933.41
2022-08-19T05:13:03.910Z,98933.53
2022-08-19T05:14:08.763Z,98939.91
2022-08-19T05:15:11.215Z,98935.81
2022-08-19T05:16:14.965Z,98934.03
2022-08-19T05:17:27.643Z,98940.34
2022-08-19T05:18:49.964Z,98949.69
2022-08-19T05:20:10.550Z,98950.63
2022-08-19T05:21:33.947Z,98954.13
2022-08-19T05:22:36.516Z,98950.22
2022-08-19T05:23:39.360Z,98953.34
2022-08-19T05:25:02.563Z,98952.94
2022-08-19T05:26:04.849Z,98956.53
2022-08-19T05:27:07.203Z,98956.72
2022-08-19T05:28:09.969Z,98959.25
2022-08-19T05:29:12.252Z,98959.00
2022-08-19T05:30:15.171Z,98970.09
2022-08-19T05:31:17.476Z,98960.69
2022-08-19T05:32:20.319Z,98966.31
2022-08-19T05:33:25.121Z,98977.16
2022-08-19T05:34:28.088Z,98976.53
2022-08-19T05:35:34.607Z,98972.69
2022-08-19T05:36:40.986Z,98980.69
2022-08-19T05:37:43.310Z,98987.84
2022-08-19T05:38:45.595Z,98984.59
2022-08-19T05:39:51.394Z,98983.03
2022-08-19T05:40:54.087Z,98995.00
2022-08-19T05:41:59.996Z,98989.69
2022-08-19T05:43:03.482Z,99005.72
2022-08-19T05:44:10.270Z,98999.75
2022-08-19T05:45:13.415Z,99005.66
2022-08-19T05:46:41.377Z,99000.22
2022-08-19T05:47:43.740Z,99002.72
2022-08-19T05:48:46.720Z,99008.97
2022-08-19T05:49:51.296Z,99011.44
2022-08-19T05:50:53.737Z,99007.16
2022-08-19T05:51:56.593Z,99013.47
2022-08-19T05:52:59.546Z,99016.66
2022-08-19T05:54:03.176Z,99024.91
2022-08-19T05:55:06.631Z,99021.41
2022-08-19T05:56:12.433Z,99028.50
2022-08-19T05:57:16.241Z,99027.00
2022-08-19T05:58:18.647Z,99029.72
2022-08-19T05:59:25.672Z,99021.78
2022-08-19T06:00:28.241Z,99034.00
2022-08-19T06:01:30.641Z,99024.97
2022-08-19T06:02:33.015Z,99034.66
2022-08-19T06:03:38.536Z,99035.19
2022-08-19T06:04:43.593Z,99024.25
2022-08-19T06:05:51.511Z,99026.13
2022-08-19T06:06:55.348Z,99029.81
2022-08-19T06:07:57.829Z,99027.31
2022-08-19T06:09:00.374Z,99022.78
2022-08-19T06:10:05.723Z,99018.06
2022-08-19T06:11:19.545Z,99024.34
2022-08-19T06:12:31.464Z,99021.53
2022-08-19T06:13:35.174Z,99020.44
2022-08-19T06:14:40.404Z,99024.53
2022-08-19T06:15:45.306Z,99018.84
2022-08-19T06:16:48.096Z,99022.56
2022-08-19T06:17:50.525Z,99023.09
2022-08-19T06:18:54.282Z,99019.91
2022-08-19T06:19:57.004Z,99015.50
2022-08-19T06:20:59.386Z,99013.44
2022-08-19T06:22:01.891Z,99009.53
2022-08-19T06:23:04.891Z,99011.06
2022-08-19T06:24:10.189Z,99012.47
2022-08-19T06:25:13.706Z,99021.16
2022-08-19T06:26:16.836Z,99016.16
2022-08-19T06:27:19.810Z,99008.56
2022-08-19T06:28:23.960Z,99017.84
2022-08-19T06:29:28.080Z,99016.88
2022-08-19T06:30:30.542Z,99017.44
2022-08-19T06:31:34.894Z,99006.91
2022-08-19T06:32:41.078Z,99004.22
2022-08-19T06:33:50.202Z,99009.56
2022-08-19T06:34:52.677Z,99013.22
2022-08-19T06:35:55.059Z,99004.66
2022-08-19T06:37:01.928Z,99009.72
2022-08-19T06:38:05.895Z,99019.00
2022-08-19T06:39:26.855Z,99018.13
2022-08-19T06:40:29.146Z,99017.84
2022-08-19T06:41:32.069Z,99017.88
2022-08-19T06:42:35.634Z,99017.44
2022-08-19T06:43:40.537Z,99018.19
2022-08-19T06:44:48.762Z,99019.84
2022-08-19T06:45:52.779Z,99022.25
2022-08-19T06:46:56.755Z,99009.91
2022-08-19T06:47:59.370Z,99021.66
2022-08-19T06:49:01.746Z,99011.44
2022-08-19T06:50:05.679Z,99016.94
2022-08-19T06:51:08.708Z,99008.34
2022-08-19T06:52:15.363Z,99016.81
2022-08-19T06:53:20.060Z,99009.59
2022-08-19T06:54:24.127Z,99013.00
2022-08-19T06:55:33.505Z,99009.31
2022-08-19T06:56:36.492Z,99011.00
2022-08-19T06:57:38.834Z,99014.41
2022-08-19T06:58:41.815Z,99010.88
2022-08-19T06:59:44.134Z,99011.16
2022-08-19T07:00:46.431Z,99011.31
2022-08-19T07:01:51.342Z,99013.19
2022-08-19T07:02:59.050Z,99005.59
2022-08-19T07:04:03.417Z,99006.59
2022-08-19T07:05:06.815Z,99014.88
2022-08-19T07:06:32.543Z,99019.66
2022-08-19T07:07:35.526Z,99019.50
2022-08-19T07:08:42.741Z,99017.41
2022-08-19T07:09:46.322Z,99010.38
2022-08-19T07:11:01.405Z,99022.34
2022-08-19T07:12:07.037Z,99026.13
2022-08-19T07:13:09.430Z,99014.88
2022-08-19T07:14:19.041Z,99013.03
2022-08-19T07:15:22.181Z,99015.56
2022-08-19T07:16:27.990Z,99014.88
2022-08-19T07:17:32.228Z,99027.25
2022-08-19T07:18:38.340Z,99018.25
2022-08-19T07:19:42.205Z,99021.31
2022-08-19T07:20:44.537Z,99017.25
2022-08-19T07:21:49.674Z,99014.44
2022-08-19T07:22:53.055Z,99018.66
2022-08-19T07:23:57.945Z,99017.38
2022-08-19T07:25:00.672Z,99011.19
2022-08-19T07:26:13.529Z,99020.91
2022-08-19T07:27:15.996Z,99023.59
2022-08-19T07:28:24.128Z,99024.31
2022-08-19T07:29:29.195Z,99015.03
2022-08-19T07:30:31.968Z,99016.84
2022-08-19T07:31:38.102Z,99022.19
2022-08-19T07:32:41.377Z,99013.63
2022-08-19T07:33:44.086Z,99027.94
2022-08-19T07:34:46.683Z,99023.59
2022-08-19T07:35:49.652Z,99018.38
2022-08-19T07:36:53.102Z,99018.97
2022-08-19T07:37:55.575Z,99015.84
2022-08-19T07:38:59.737Z,99017.84
2022-08-19T07:40:02.711Z,99018.22
2022-08-19T07:41:05.195Z,99017.97
2022-08-19T07:42:10.901Z,99018.09
2022-08-19T07:43:17.340Z,99019.47
2022-08-19T07:44:21.591Z,99017.88
2022-08-19T07:45:24.046Z,99016.31
2022-08-19T07:46:27.905Z,99015.50
2022-08-19T07:47:49.071Z,99022.25
2022-08-19T07:48:53.082Z,99010.28
2022-08-19T07:49:55.706Z,99018.88
2022-08-19T07:51:02.860Z,99028.13
2022-08-19T07:52:08.333Z,99024.75
2022-08-19T07:53:10.990Z,99021.06
2022-08-19T07:54:13.481Z,99028.88
2022-08-19T07:55:41.764Z,99027.59
2022-08-19T07:56:39.519Z,99026.53
2022-08-19T07:57:41.861Z,99027.97
2022-08-19T07:58:46.466Z,99016.28
2022-08-19T07:59:48.821Z,99029.50
2022-08-19T08:00:52.176Z,99025.00
2022-08-19T08:01:54.804Z,99019.19
2022-08-19T08:02:57.353Z,99020.75
2022-08-19T08:04:18.772Z,99010.59
2022-08-19T08:05:43.402Z,99011.81
2022-08-19T08:07:04.865Z,99012.81
2022-08-19T08:08:44.402Z,99013.13
2022-08-19T08:09:50.678Z,99011.41
2022-08-19T08:10:54.615Z,99020.09
2022-08-19T08:12:13.323Z,99017.19
2022-08-19T08:13:27.912Z,99025.50
2022-08-19T08:14:37.134Z,99026.13
2022-08-19T08:15:42.824Z,99024.81
2022-08-19T08:16:47.341Z,99008.69
2022-08-19T08:17:51.615Z,99010.91
2022-08-19T08:18:54.135Z,98998.84
2022-08-19T08:19:57.984Z,99003.06
2022-08-19T08:21:00.423Z,99001.44
2022-08-19T08:22:03.767Z,98990.69
2022-08-19T08:23:26.684Z,98998.59
2022-08-19T08:24:31.797Z,99004.88
2022-08-19T08:25:36.341Z,99007.50
2022-08-19T08:26:38.967Z,99009.19
2022-08-19T08:27:53.655Z,99014.06
2022-08-19T08:28:57.548Z,99013.38
2022-08-19T08:29:59.942Z,99019.09
2022-08-19T08:31:09.359Z,99015.88
2022-08-19T08:32:14.916Z,99011.94
2022-08-19T08:33:33.906Z,99024.47
2022-08-19T08:34:38.012Z,99027.19
2022-08-19T08:35:42.716Z,99033.69
2022-08-19T08:36:47.575Z,99028.63
2022-08-19T08:37:53.173Z,99044.53
2022-08-19T08:40:06.675Z,99034.41
2022-08-19T08:41:49.901Z,99034.09
2022-08-19T08:43:11.093Z,99039.97
2022-08-19T08:44:22.733Z,99030.25
2022-08-19T08:45:25.437Z,99041.19
2022-08-19T08:46:40.934Z,99028.28
2022-08-19T08:47:48.602Z,99017.97
2022-08-19T08:48:57.350Z,99026.91
2022-08-19T08:50:08.617Z,99024.97
2022-08-19T08:51:20.101Z,99025.56
2022-08-19T08:52:32.210Z,99028.63
2022-08-19T08:53:40.502Z,99026.47
2022-08-19T08:54:49.074Z,99018.38
2022-08-19T08:55:57.479Z,99026.25
2022-08-19T08:56:59.869Z,99032.22
2022-08-19T08:58:07.739Z,99039.13
2022-08-19T08:59:22.776Z,99030.47
2022-08-19T09:00:29.798Z,99035.19
2022-08-19T09:01:32.097Z,99043.88
2022-08-19T09:02:34.599Z,99038.06
2022-08-19T09:03:40.735Z,99032.16
2022-08-19T09:04:45.775Z,99027.44
2022-08-19T09:06:04.369Z,99035.25
2022-08-19T09:07:42.124Z,99029.34
2022-08-19T09:09:03.395Z,99029.03
2022-08-19T09:10:15.949Z,99023.03
2022-08-19T09:11:44.613Z,99020.97
2022-08-19T09:12:53.897Z,99029.38
2022-08-19T09:14:40.677Z,99018.13
2022-08-19T09:15:48.992Z,99029.78
2022-08-19T09:16:52.501Z,99028.38
2022-08-19T09:17:54.953Z,99028.41
2022-08-19T09:19:04.732Z,99027.91
2022-08-19T09:20:11.645Z,99017.28
2022-08-19T09:21:17.566Z,99022.16
2022-08-19T09:22:25.991Z,99019.16
2022-08-19T09:23:29.576Z,99014.69
2022-08-19T09:24:32.005Z,99004.34
2022-08-19T09:25:35.486Z,99006.81
2022-08-19T09:26:47.637Z,99010.44
2022-08-19T09:28:02.283Z,99006.81
2022-08-19T09:29:06.581Z,99007.97
2022-08-19T09:30:13.034Z,99007.00
2022-08-19T09:31:19.080Z,99013.34
2022-08-19T09:32:26.959Z,99009.16
2022-08-19T09:33:30.127Z,99007.75
2022-08-19T09:34:37.910Z,99006.50
2022-08-19T09:35:49.995Z,99001.94
2022-08-19T09:36:59.130Z,99007.97
2022-08-19T09:38:01.448Z,99006.47
2022-08-19T09:39:14.852Z,99007.19
2022-08-19T09:40:19.926Z,99003.75
2022-08-19T09:41:25.214Z,99013.06
2022-08-19T09:42:35.217Z,99014.72
2022-08-19T09:43:44.289Z,99011.06
2022-08-19T09:44:48.778Z,99020.31
2022-08-19T09:45:51.060Z,99022.00
2022-08-19T09:46:53.355Z,99012.84
2022-08-19T09:47:55.878Z,99002.88
2022-08-19T09:49:06.000Z,99014.97
2022-08-19T09:50:11.989Z,99006.31
2022-08-19T09:51:22.755Z,99007.28
2022-08-19T09:52:25.762Z,99005.13
2022-08-19T09:53:35.932Z,99018.13
2022-08-19T09:54:40.150Z,99006.66
2022-08-19T09:55:46.555Z,99012.91
2022-08-19T09:56:49.031Z,99005.34
2022-08-19T09:57:54.368Z,99013.00
2022-08-19T09:59:00.475Z,99014.16
2022-08-19T10:00:06.534Z,99015.31
2022-08-19T10:01:10.501Z,99012.97
2022-08-19T10:02:12.964Z,99016.84
2022-08-19T10:03:15.338Z,99007.97
2022-08-19T10:04:20.449Z,99028.06
2022-08-19T10:05:43.606Z,99020.16
2022-08-19T10:06:48.628Z,99022.38
2022-08-19T10:07:56.862Z,99019.69
2022-08-19T10:08:59.392Z,99017.81
2022-08-19T10:10:02.892Z,99018.13
2022-08-19T10:11:28.341Z,99021.31
2022-08-19T10:12:27.926Z,99023.31
2022-08-19T10:13:33.223Z,99014.44
2022-08-19T10:14:35.960Z,99014.72
2022-08-19T10:15:45.267Z,99007.56
2022-08-19T10:16:51.611Z,99005.31
2022-08-19T10:17:55.225Z,99011.78
2022-08-19T10:18:58.962Z,99006.00
2022-08-19T10:20:03.564Z,99000.63
2022-08-19T10:21:11.575Z,99001.78
2022-08-19T10:22:14.743Z,99005.59
2022-08-19T10:23:18.580Z,99004.97
2022-08-19T10:24:21.651Z,99004.06
2022-08-19T10:25:24.071Z,99007.50
2022-08-19T10:26:29.099Z,99001.31
2022-08-19T10:27:32.449Z,99003.16
2022-08-19T10:28:39.812Z,99002.19
2022-08-19T10:29:46.445Z,99001.78
2022-08-19T10:30:49.078Z,99000.00
2022-08-19T10:31:59.983Z,99001.38
2022-08-19T10:33:10.828Z,99005.84
2022-08-19T10:34:27.113Z,99002.13
2022-08-19T10:35:30.504Z,98994.00
2022-08-19T10:36:54.358Z,98992.72
2022-08-19T10:38:03.020Z,98999.75
2022-08-19T10:39:08.866Z,98999.75
2022-08-19T10:40:12.339Z,99001.78
2022-08-19T10:41:25.946Z,99002.91
2022-08-19T10:42:28.446Z,98996.38
2022-08-19T10:43:30.702Z,98995.25
2022-08-19T10:44:36.313Z,99006.66
2022-08-19T10:45:38.821Z,99000.47
2022-08-19T10:46:54.999Z,98995.75
2022-08-19T10:47:59.147Z,98997.16
2022-08-19T10:49:04.568Z,98989.31
2022-08-19T10:50:28.691Z,99005.22
2022-08-19T10:51:51.809Z,99001.97
2022-08-19T10:52:54.181Z,98992.09
2022-08-19T10:53:59.851Z,99003.31
2022-08-19T10:55:21.889Z,98986.34
2022-08-19T10:56:42.977Z,98977.81
2022-08-19T10:58:01.795Z,98977.28
2022-08-19T10:59:05.508Z,98975.78
2022-08-19T11:00:08.345Z,98972.59
2022-08-19T11:01:10.706Z,98964.03
2022-08-19T11:02:13.854Z,98968.78
2022-08-19T11:03:16.132Z,98966.06
2022-08-19T11:04:20.237Z,98969.88
2022-08-19T11:05:24.266Z,98973.63
2022-08-19T11:06:27.117Z,98965.41
2022-08-19T11:07:29.395Z,98959.25
2022-08-19T11:08:32.056Z,98962.47
2022-08-19T11:09:41.724Z,98970.56
2022-08-19T11:10:46.772Z,98962.25
2022-08-19T11:11:54.290Z,98954.25
2022-08-19T11:12:57.751Z,98957.00
2022-08-19T11:14:00.208Z,98953.06
2022-08-19T11:15:02.587Z,98957.47
2022-08-19T11:16:09.524Z,98955.28
2022-08-19T11:17:14.485Z,98934.06
2022-08-19T11:18:17.927Z,98951.00
2022-08-19T11:19:20.342Z,98953.34
2022-08-19T11:20:24.690Z,98954.00
2022-08-19T11:21:32.602Z,98950.38
2022-08-19T11:22:40.626Z,98941.13
2022-08-19T11:23:44.568Z,98934.84
2022-08-19T11:24:46.893Z,98943.50
2022-08-19T11:25:50.540Z,98947.78
2022-08-19T11:26:59.889Z,98939.28
2022-08-19T11:28:02.143Z,98938.69
2022-08-19T11:29:07.060Z,98938.25
2022-08-19T11:30:13.227Z,98934.22
2022-08-19T11:31:20.410Z,98949.13
2022-08-19T11:32:22.804Z,98942.34
2022-08-19T11:33:27.200Z,98956.09
2022-08-19T11:34:30.162Z,98943.72
2022-08-19T11:35:33.914Z,98956.59
2022-08-19T11:36:39.560Z,98947.72
2022-08-19T11:37:41.813Z,98957.41
2022-08-19T11:38:45.864Z,98959.69
2022-08-19T11:39:53.411Z,98949.88
2022-08-19T11:40:58.879Z,98949.00
2022-08-19T11:42:03.839Z,98959.38
2022-08-19T11:43:07.101Z,98955.22
2022-08-19T11:44:09.552Z,98956.84
2022-08-19T11:45:14.894Z,98942.56
2022-08-19T11:46:17.954Z,98948.44
2022-08-19T11:47:20.792Z,98958.84
2022-08-19T11:48:24.125Z,98951.25
2022-08-19T11:49:26.683Z,98953.88
2022-08-19T11:50:29.085Z,98947.41
2022-08-19T11:51:31.606Z,98947.50
2022-08-19T11:52:34.077Z,98947.38
2022-08-19T11:53:37.503Z,98952.81
2022-08-19T11:54:39.829Z,98948.31
2022-08-19T11:55:44.188Z,98955.81
2022-08-19T11:56:48.703Z,98960.22
2022-08-19T11:57:51.153Z,98960.94
2022-08-19T11:58:54.705Z,98968.13
2022-08-19T11:59:57.237Z,98966.28
2022-08-19T12:00:59.769Z,98951.91
2022-08-19T12:02:02.084Z,98959.38
2022-08-19T12:03:04.530Z,98964.94
2022-08-19T12:04:07.063Z,98961.72
2022-08-19T12:05:12.541Z,98962.50
2022-08-19T12:06:28.240Z,98965.97
2022-08-19T12:07:33.973Z,98967.91
2022-08-19T12:08:36.551Z,98976.03
2022-08-19T12:09:42.155Z,98978.81
2022-08-19T12:10:46.477Z,98969.38
2022-08-19T12:11:49.043Z,98972.50
2022-08-19T12:12:57.062Z,98970.38
2022-08-19T12:14:01.623Z,98957.09
2022-08-19T12:15:04.456Z,98969.44
2022-08-19T12:16:13.174Z,98963.50
2022-08-19T12:17:16.227Z,98962.47
2022-08-19T12:18:18.898Z,98955.53
2022-08-19T12:19:22.385Z,98965.03
2022-08-19T12:20:25.684Z,98952.56
2022-08-19T12:21:29.499Z,98957.81
2022-08-19T12:22:31.818Z,98960.66
2022-08-19T12:23:34.100Z,98953.97
2022-08-19T12:24:36.775Z,98958.03
2022-08-19T12:25:52.428Z,98947.38
2022-08-19T12:26:56.315Z,98952.94
2022-08-19T12:28:04.576Z,98958.72
2022-08-19T12:29:07.954Z,98954.97
2022-08-19T12:30:12.718Z,98961.28
2022-08-19T12:31:20.430Z,98959.84
2022-08-19T12:32:22.975Z,98953.34
2022-08-19T12:33:28.453Z,98957.59
2022-08-19T12:34:31.362Z,98964.22
2022-08-19T12:35:33.659Z,98958.78
2022-08-19T12:36:35.998Z,98950.47
2022-08-19T12:37:42.468Z,98955.34
2022-08-19T12:38:45.452Z,98953.31
2022-08-19T12:39:48.014Z,98950.59
2022-08-19T12:40:55.095Z,98947.84
2022-08-19T12:41:59.480Z,98948.22
2022-08-19T12:43:01.826Z,98940.28
2022-08-19T12:44:04.317Z,98949.09
2022-08-19T12:45:11.995Z,98947.41
2022-08-19T12:46:15.304Z,98957.09
2022-08-19T12:47:21.339Z,98944.53
2022-08-19T12:48:33.304Z,98946.28
2022-08-19T12:49:54.711Z,98957.56
2022-08-19T12:50:57.949Z,98948.44
2022-08-19T12:52:04.539Z,98946.25
2022-08-19T12:53:06.836Z,98950.50
2022-08-19T12:54:09.110Z,98938.88
2022-08-19T12:55:12.437Z,98932.50
2022-08-19T12:56:15.635Z,98937.81